Time;durP1;ratioP1;P1;durP2;ratioP2;P2;SDS_P1;SDS_P2;PMS_P1;PMS_P2;Temp;Humidity;BMP_temperature;BMP_pressure;BME280_temperature;BME280_humidity;BME280_pressure;Samples;Min_cycle;Max_cycle;Signal;HPM_P1;HPM_P2
2021/12/09 00:00:12;;;;;;;;;;;;;;;10.76;28.76;94001.22;5042980;28;19913;-47
2021/12/09 00:02:39;;;;;;;;;;;;;;;10.54;29.48;94014.25;5039570;28;20223;-56
2021/12/09 00:05:08;;;;;;;;;;;;;;;10.91;28.72;93998.25;5042883;28;19917;-51
2021/12/09 00:07:35;;;;;;;;;;;;;;;9.63;30.06;93998.47;5054763;28;19924;-54
2021/12/09 00:10:05;;;;;;;;;;;;;;;9.51;30.62;93998.94;5053662;28;20307;-49
2021/12/09 00:12:32;;;;;;;;;;;;;;;11.07;28.83;93996.84;5055447;28;19913;-47
2021/12/09 00:14:59;;;;;;;;;;;;;;;10.64;29.03;93995.72;5055377;28;19917;-48
2021/12/09 00:17:26;;;;;;;;;;;;;;;9.44;30.86;93988.13;5054711;28;20223;-48
2021/12/09 00:19:53;;;;;;;;;;;;;;;9.26;31.37;93998.31;5054755;28;19947;-49
2021/12/09 00:22:20;;;;;;;;;;;;;;;8.53;32.75;93974.66;5054250;28;19924;-49
2021/12/09 00:24:47;;;;;;;;;;;;;;;9.17;32.48;93992.22;5053485;28;19917;-48
2021/12/09 00:27:14;;;;;;;;;;;;;;;8.89;32.38;93993.19;5054970;28;19963;-49
2021/12/09 00:29:41;;;;;;;;;;;;;;;8.67;33.85;93974.75;5054978;28;19927;-51
2021/12/09 00:32:07;;;;;;;;;;;;;;;9.89;31.07;93971.63;5054491;28;19912;-51
2021/12/09 00:34:36;;;;;;;;;;;;;;;9.94;30.40;93970.00;5053018;28;20247;-50
2021/12/09 00:37:18;;;;;;;;;;;;;;;8.64;33.19;93971.66;5052926;28;19923;-48
2021/12/09 00:39:46;;;;;;;;;;;;;;;8.79;33.22;93972.47;5053425;28;19917;-55
2021/12/09 00:42:12;;;;;;;;;;;;;;;9.05;33.22;93971.00;5055611;28;19916;-49
2021/12/09 00:44:39;;;;;;;;;;;;;;;9.71;31.40;93956.84;5055595;28;19913;-44
2021/12/09 00:47:06;;;;;;;;;;;;;;;9.92;30.82;93961.66;5040906;28;19920;-60
2021/12/09 00:49:33;;;;;;;;;;;;;;;9.61;31.71;93977.88;5048575;28;19917;-52
2021/12/09 00:52:00;;;;;;;;;;;;;;;9.74;31.50;93977.13;5055295;28;20302;-65
2021/12/09 00:54:27;;;;;;;;;;;;;;;10.26;30.53;93971.72;5055340;28;19916;-50
2021/12/09 00:56:54;;;;;;;;;;;;;;;10.62;30.20;93956.81;5043370;28;20205;-50
2021/12/09 00:59:21;;;;;;;;;;;;;;;10.47;30.62;93957.16;5046279;28;19936;-55
2021/12/09 01:01:48;;;;;;;;;;;;;;;10.79;30.28;93958.78;5054156;28;20205;-53
2021/12/09 01:04:15;;;;;;;;;;;;;;;11.22;29.41;93966.16;5044336;28;19917;-54
2021/12/09 01:06:42;;;;;;;;;;;;;;;11.36;29.42;93966.84;5035089;28;19921;-59
2021/12/09 01:09:09;;;;;;;;;;;;;;;11.61;28.82;93975.91;5034929;28;19913;-56
2021/12/09 01:11:36;;;;;;;;;;;;;;;9.85;31.74;93973.25;5051400;28;19917;-58
2021/12/09 01:14:02;;;;;;;;;;;;;;;9.82;32.24;93979.06;5043124;28;19916;-67
2021/12/09 01:16:29;;;;;;;;;;;;;;;9.87;32.12;93973.72;5034447;28;19920;-52
2021/12/09 01:18:57;;;;;;;;;;;;;;;10.16;31.44;93967.47;5035694;28;19917;-57
2021/12/09 01:21:23;;;;;;;;;;;;;;;9.69;32.42;93969.41;5048829;28;19920;-55
2021/12/09 01:23:50;;;;;;;;;;;;;;;9.54;32.44;93962.63;5054493;28;19912;-58
2021/12/09 01:26:17;;;;;;;;;;;;;;;9.65;32.24;93968.44;5037558;28;19921;-52
2021/12/09 01:28:58;;;;;;;;;;;;;;;9.24;32.90;93963.91;5034679;28;19920;-62
2021/12/09 01:31:30;;;;;;;;;;;;;;;9.64;32.17;93973.94;5049144;28;19919;-66
2021/12/09 01:34:01;;;;;;;;;;;;;;;9.92;31.79;93977.34;5054532;28;19917;-63
2021/12/09 01:36:29;;;;;;;;;;;;;;;10.13;31.45;93973.25;5037114;28;19920;-66
2021/12/09 01:38:56;;;;;;;;;;;;;;;10.05;31.24;93964.25;5053244;28;20315;-67
2021/12/09 01:41:23;;;;;;;;;;;;;;;10.44;30.94;93976.03;5054128;28;19912;-66
2021/12/09 01:43:50;;;;;;;;;;;;;;;10.07;31.72;93961.34;5046099;28;19913;-54
2021/12/09 01:46:18;;;;;;;;;;;;;;;9.58;32.69;93960.97;5047469;28;19920;-63
2021/12/09 01:48:45;;;;;;;;;;;;;;;9.45;32.97;93974.00;5034850;28;19913;-62
2021/12/09 01:51:12;;;;;;;;;;;;;;;9.25;33.35;93968.06;5045834;28;19917;-59
2021/12/09 01:53:39;;;;;;;;;;;;;;;9.45;32.90;93969.56;5054237;28;19920;-66
2021/12/09 01:56:08;;;;;;;;;;;;;;;9.29;33.06;93976.09;5036610;28;19924;-62
2021/12/09 01:58:35;;;;;;;;;;;;;;;9.35;32.90;93961.91;5034567;28;19920;-56
2021/12/09 02:01:02;;;;;;;;;;;;;;;9.07;33.64;93953.25;5043898;28;19920;-59
2021/12/09 02:03:29;;;;;;;;;;;;;;;9.01;33.82;93961.44;5054402;28;19923;-63
2021/12/09 02:05:56;;;;;;;;;;;;;;;9.32;33.32;93948.66;5054314;28;20230;-60
2021/12/09 02:08:23;;;;;;;;;;;;;;;9.40;33.14;93959.22;5054530;28;19928;-56
2021/12/09 02:10:51;;;;;;;;;;;;;;;9.40;33.14;93950.63;5053522;28;19913;-60
2021/12/09 02:13:18;;;;;;;;;;;;;;;9.35;33.04;93963.75;5054068;28;19917;-64
2021/12/09 02:15:45;;;;;;;;;;;;;;;9.42;32.85;93957.09;5054683;28;19991;-59
2021/12/09 02:18:13;;;;;;;;;;;;;;;9.85;32.31;93962.03;5050783;28;19931;-65
2021/12/09 02:20:40;;;;;;;;;;;;;;;9.55;32.79;93964.16;5041092;28;19921;-59
2021/12/09 02:23:10;;;;;;;;;;;;;;;9.90;32.36;93975.03;5053622;28;19912;-62
2021/12/09 02:25:44;;;;;;;;;;;;;;;10.22;31.70;93976.75;5053877;28;19920;-57
2021/12/09 02:28:15;;;;;;;;;;;;;;;9.74;32.71;93977.13;5054121;28;19920;-60
2021/12/09 02:30:42;;;;;;;;;;;;;;;9.32;33.77;93970.31;5053864;28;19923;-57
2021/12/09 02:33:09;;;;;;;;;;;;;;;9.07;33.84;93966.28;5053693;28;19913;-59
2021/12/09 02:35:38;;;;;;;;;;;;;;;9.24;33.47;93978.81;5036834;28;19917;-60
2021/12/09 02:38:07;;;;;;;;;;;;;;;9.31;33.38;93973.97;5033710;28;19920;-57
2021/12/09 02:40:34;;;;;;;;;;;;;;;9.41;33.31;93963.38;5040132;28;19925;-60
2021/12/09 02:43:01;;;;;;;;;;;;;;;9.24;33.28;93958.72;5057471;28;20327;-63
2021/12/09 02:45:28;;;;;;;;;;;;;;;8.99;33.88;93964.34;5057449;28;19923;-61
2021/12/09 02:47:55;;;;;;;;;;;;;;;8.85;33.83;93963.53;5056477;28;19924;-59
2021/12/09 02:50:22;;;;;;;;;;;;;;;8.96;33.78;93957.88;5041119;28;20299;-59
2021/12/09 02:52:48;;;;;;;;;;;;;;;9.22;33.24;93960.84;5057773;28;19917;-57
2021/12/09 02:55:15;;;;;;;;;;;;;;;9.43;32.98;93955.25;5057090;28;20353;-63
2021/12/09 02:57:42;;;;;;;;;;;;;;;9.48;32.78;93957.78;5056534;28;19916;-65
2021/12/09 03:00:10;;;;;;;;;;;;;;;9.21;33.48;93954.06;5057278;28;19916;-56
2021/12/09 03:02:36;;;;;;;;;;;;;;;9.11;33.49;93969.91;5056523;28;19913;-59
2021/12/09 03:05:04;;;;;;;;;;;;;;;9.25;33.19;93970.69;5056551;28;19912;-60
2021/12/09 03:07:36;;;;;;;;;;;;;;;9.51;32.93;93972.84;5057501;28;20303;-65
2021/12/09 03:10:17;;;;;;;;;;;;;;;9.34;33.24;93972.63;5056209;28;19917;-66
2021/12/09 03:12:44;;;;;;;;;;;;;;;9.14;33.47;93966.72;5056617;28;19950;-62
2021/12/09 03:15:11;;;;;;;;;;;;;;;9.40;33.02;93966.28;5056970;28;19921;-58
2021/12/09 03:17:40;;;;;;;;;;;;;;;9.39;33.18;93967.34;5057065;28;19912;-60
2021/12/09 03:20:09;;;;;;;;;;;;;;;8.86;34.05;93972.91;5056416;28;19913;-63
2021/12/09 03:22:36;;;;;;;;;;;;;;;8.51;34.63;93971.56;5057246;28;19916;-62
2021/12/09 03:25:04;;;;;;;;;;;;;;;9.14;33.70;93982.34;5041396;28;19919;-61
2021/12/09 03:27:31;;;;;;;;;;;;;;;9.20;33.43;93989.03;5052160;28;19917;-67
2021/12/09 03:29:57;;;;;;;;;;;;;;;9.00;34.10;93978.91;5041796;28;20201;-60
2021/12/09 03:32:24;;;;;;;;;;;;;;;8.92;34.26;93971.75;5037279;28;19924;-59
2021/12/09 03:34:51;;;;;;;;;;;;;;;9.57;33.35;93963.88;5052914;28;19913;-60
2021/12/09 03:37:19;;;;;;;;;;;;;;;9.58;33.20;93973.25;5039147;28;19921;-55
2021/12/09 03:39:47;;;;;;;;;;;;;;;9.46;33.34;93965.13;5056149;28;19913;-62
2021/12/09 03:42:15;;;;;;;;;;;;;;;9.19;33.72;93964.00;5056511;28;19920;-60
2021/12/09 03:44:42;;;;;;;;;;;;;;;9.41;33.32;93962.59;5056360;28;19912;-58
2021/12/09 03:47:11;;;;;;;;;;;;;;;9.52;32.92;93956.91;5055932;28;19913;-65
2021/12/09 03:49:38;;;;;;;;;;;;;;;9.45;32.95;93953.13;5056807;28;19947;-58
2021/12/09 03:52:05;;;;;;;;;;;;;;;9.73;32.50;93967.75;5052618;28;19916;-60
2021/12/09 03:54:31;;;;;;;;;;;;;;;9.93;32.27;93978.88;5049642;28;19913;-64
2021/12/09 03:56:58;;;;;;;;;;;;;;;9.92;32.22;93975.50;5056642;28;19925;-58
2021/12/09 03:59:25;;;;;;;;;;;;;;;10.78;30.85;93996.47;5055882;28;19916;-58
2021/12/09 04:01:52;;;;;;;;;;;;;;;11.30;29.75;93986.38;5024507;28;19912;-63
2021/12/09 04:04:19;;;;;;;;;;;;;;;10.15;32.21;93974.53;5056261;28;19916;-58
2021/12/09 04:06:46;;;;;;;;;;;;;;;9.81;32.57;93977.50;5051088;28;19924;-61
2021/12/09 04:09:13;;;;;;;;;;;;;;;9.66;32.89;93985.66;5052119;28;19919;-65
2021/12/09 04:11:40;;;;;;;;;;;;;;;9.75;33.27;93973.47;5036597;28;19921;-62
2021/12/09 04:14:07;;;;;;;;;;;;;;;9.56;33.22;93970.16;5045159;28;19913;-60
2021/12/09 04:16:35;;;;;;;;;;;;;;;9.92;32.55;93982.56;5056317;28;19925;-57
2021/12/09 04:19:03;;;;;;;;;;;;;;;9.68;33.32;93987.97;5056033;28;19913;-66
2021/12/09 04:21:30;;;;;;;;;;;;;;;9.71;32.96;93987.38;5055650;28;19924;-59
2021/12/09 04:23:57;;;;;;;;;;;;;;;9.76;33.07;93993.28;5055441;28;19913;-67
2021/12/09 04:26:24;;;;;;;;;;;;;;;9.72;33.26;93989.69;5055417;28;19932;-61
2021/12/09 04:28:51;;;;;;;;;;;;;;;10.72;31.67;93980.13;5055741;28;19917;-59
2021/12/09 04:31:18;;;;;;;;;;;;;;;9.89;32.57;93978.69;5056050;28;19912;-59
2021/12/09 04:33:45;;;;;;;;;;;;;;;9.77;32.63;93981.78;5055673;28;20307;-58
2021/12/09 04:36:11;;;;;;;;;;;;;;;9.33;33.22;93992.72;5055707;28;19944;-59
2021/12/09 04:38:38;;;;;;;;;;;;;;;9.49;33.06;93995.84;5055551;28;19920;-66
2021/12/09 04:41:05;;;;;;;;;;;;;;;9.56;33.35;93998.84;5055039;28;19916;-60
2021/12/09 04:43:34;;;;;;;;;;;;;;;9.81;32.51;93992.41;5055664;28;19921;-64
2021/12/09 04:46:01;;;;;;;;;;;;;;;9.73;32.91;93995.69;5055774;28;19947;-63
2021/12/09 04:48:28;;;;;;;;;;;;;;;9.95;32.67;93992.41;5054637;28;19919;-65
2021/12/09 04:50:55;;;;;;;;;;;;;;;9.74;32.84;94005.06;5054538;28;19917;-63
2021/12/09 04:53:22;;;;;;;;;;;;;;;9.27;33.82;94006.91;5055477;28;19917;-53
2021/12/09 04:55:48;;;;;;;;;;;;;;;9.37;33.97;94005.97;5055573;28;20324;-66
2021/12/09 04:58:15;;;;;;;;;;;;;;;9.48;33.62;94004.75;5048348;28;19917;-65
2021/12/09 05:00:42;;;;;;;;;;;;;;;9.68;33.21;94009.63;5055360;28;19923;-66
2021/12/09 05:03:12;;;;;;;;;;;;;;;9.73;33.07;94011.34;5054851;28;19913;-64
2021/12/09 05:05:41;;;;;;;;;;;;;;;9.70;33.39;94002.28;5039282;28;19920;-66
2021/12/09 05:08:09;;;;;;;;;;;;;;;9.95;33.08;94008.88;5040722;28;19923;-63
2021/12/09 05:10:50;;;;;;;;;;;;;;;10.12;33.03;94003.03;5054663;28;20184;-67
2021/12/09 05:13:17;;;;;;;;;;;;;;;9.95;32.85;94006.25;5053946;28;20326;-67
2021/12/09 05:15:44;;;;;;;;;;;;;;;10.36;32.48;94008.84;5055105;28;19923;-67
2021/12/09 05:18:11;;;;;;;;;;;;;;;9.85;33.64;94003.81;5054484;28;19912;-67
2021/12/09 05:20:38;;;;;;;;;;;;;;;10.24;32.92;94015.66;5054449;28;19923;-67
2021/12/09 05:23:05;;;;;;;;;;;;;;;9.93;33.76;94011.00;5054800;28;19923;-66
2021/12/09 05:25:32;;;;;;;;;;;;;;;14.35;26.47;94012.16;5038308;28;20387;-42
2021/12/09 05:27:59;;;;;;;;;;;;;;;14.61;25.84;94004.16;5041694;28;20311;-51
2021/12/09 05:30:38;;;;;;;;;;;;;;;15.30;24.85;94014.13;5038216;28;19913;-47
2021/12/09 05:33:05;;;;;;;;;;;;;;;16.25;23.50;94009.75;5047563;28;19916;-48
2021/12/09 05:35:33;;;;;;;;;;;;;;;16.59;22.96;94019.06;5044507;28;20303;-54
2021/12/09 05:38:00;;;;;;;;;;;;;;;16.52;23.07;94003.81;5040155;28;19919;-49
2021/12/09 05:40:27;;;;;;;;;;;;;;;15.93;23.56;93993.69;5034900;28;20300;-49
2021/12/09 05:42:54;;;;;;;;;;;;;;;16.48;23.17;94008.22;5034657;28;19917;-52
2021/12/09 05:45:21;;;;;;;;;;;;;;;16.13;23.69;94010.50;5050984;28;19920;-48
2021/12/09 05:47:47;;;;;;;;;;;;;;;11.74;29.59;94007.25;5024945;28;20235;-45
2021/12/09 05:50:39;;;;;;;;;;;;;;;11.12;31.33;94004.56;5038732;28;19917;-59
2021/12/09 05:53:06;;;;;;;;;;;;;;;10.57;32.31;94008.44;5034237;28;19975;-48
2021/12/09 05:55:33;;;;;;;;;;;;;;;10.78;32.54;94017.38;5045706;28;20237;-50
2021/12/09 05:58:01;;;;;;;;;;;;;;;10.36;33.10;94024.53;5037288;28;19920;-47
2021/12/09 06:00:27;;;;;;;;;;;;;;;9.88;34.55;94021.50;5046289;28;19928;-51
2021/12/09 06:02:54;;;;;;;;;;;;;;;10.11;34.22;94023.16;5034506;28;20233;-50
2021/12/09 06:05:21;;;;;;;;;;;;;;;9.84;34.19;94023.94;5049015;28;19913;-48
2021/12/09 06:07:49;;;;;;;;;;;;;;;10.11;33.73;94031.00;5053823;28;20038;-51
2021/12/09 06:10:16;;;;;;;;;;;;;;;9.97;33.87;94014.56;5052932;28;19923;-48
2021/12/09 06:12:43;;;;;;;;;;;;;;;10.30;34.10;94035.38;5054223;28;19921;-48
2021/12/09 06:15:10;;;;;;;;;;;;;;;10.69;33.17;94024.41;5055148;28;19916;-56
2021/12/09 06:17:36;;;;;;;;;;;;;;;10.49;33.46;94031.59;5057819;28;19920;-48
2021/12/09 06:20:04;;;;;;;;;;;;;;;10.14;34.23;94032.25;5057094;28;20491;-49
2021/12/09 06:22:31;;;;;;;;;;;;;;;10.84;32.75;94029.28;5057986;28;19924;-46
2021/12/09 06:24:58;;;;;;;;;;;;;;;10.72;33.27;94036.88;5057625;28;19920;-48
2021/12/09 06:27:24;;;;;;;;;;;;;;;10.57;32.94;94029.34;5058049;28;20308;-55
2021/12/09 06:29:51;;;;;;;;;;;;;;;11.06;31.82;94031.91;5057784;28;20667;-48
2021/12/09 06:32:18;;;;;;;;;;;;;;;10.10;33.85;94044.34;5058044;28;20227;-52
2021/12/09 06:34:45;;;;;;;;;;;;;;;10.57;33.31;94035.34;5057617;28;19917;-57
2021/12/09 06:37:12;;;;;;;;;;;;;;;10.45;33.52;94038.47;5057165;28;19924;-48
2021/12/09 06:39:39;;;;;;;;;;;;;;;10.13;34.42;94036.69;5057450;28;20239;-47
2021/12/09 06:42:06;;;;;;;;;;;;;;;9.85;34.72;94030.69;5057966;28;20239;-47
2021/12/09 06:44:33;;;;;;;;;;;;;;;10.21;34.06;94027.47;5049114;28;19940;-50
2021/12/09 06:47:00;;;;;;;;;;;;;;;9.80;34.06;94028.19;5057780;28;20204;-55
2021/12/09 06:49:27;;;;;;;;;;;;;;;9.39;35.09;94032.56;5056475;28;19920;-48
2021/12/09 06:51:54;;;;;;;;;;;;;;;9.87;34.34;94023.34;5056979;28;19917;-49
2021/12/09 06:54:20;;;;;;;;;;;;;;;9.76;34.47;94027.22;5057231;28;19921;-52
2021/12/09 06:56:47;;;;;;;;;;;;;;;9.57;34.82;94024.66;5057495;28;19921;-47
2021/12/09 06:59:14;;;;;;;;;;;;;;;9.46;35.26;94025.91;5057241;28;20318;-47
2021/12/09 07:01:41;;;;;;;;;;;;;;;9.39;35.39;94033.34;5055553;28;19916;-48
2021/12/09 07:04:08;;;;;;;;;;;;;;;9.43;35.47;94020.50;5052509;28;19912;-68
2021/12/09 07:06:36;;;;;;;;;;;;;;;9.05;36.39;94030.22;5057382;28;19920;-49
2021/12/09 07:09:04;;;;;;;;;;;;;;;9.17;36.01;94027.94;5057009;28;19916;-53
2021/12/09 07:11:32;;;;;;;;;;;;;;;9.39;35.14;94022.13;5056890;28;19921;-54
2021/12/09 07:13:58;;;;;;;;;;;;;;;9.39;35.34;94022.13;5056995;28;20650;-47
2021/12/09 07:16:25;;;;;;;;;;;;;;;9.66;34.67;94016.97;5057485;28;19916;-47
2021/12/09 07:18:52;;;;;;;;;;;;;;;9.44;35.24;94019.44;5056927;28;20326;-48
2021/12/09 07:21:19;;;;;;;;;;;;;;;9.04;35.89;94026.84;5056914;28;19917;-49
2021/12/09 07:23:46;;;;;;;;;;;;;;;9.46;34.96;94027.75;5056810;28;19913;-65
2021/12/09 07:26:13;;;;;;;;;;;;;;;9.40;35.40;94023.69;5057177;28;19916;-47
2021/12/09 07:28:39;;;;;;;;;;;;;;;9.51;35.05;94014.59;5056777;28;19921;-55
2021/12/09 07:31:06;;;;;;;;;;;;;;;9.67;34.96;94013.28;5056867;28;20243;-54
2021/12/09 07:33:33;;;;;;;;;;;;;;;9.53;34.94;94012.47;5057045;28;19912;-47
2021/12/09 07:36:00;;;;;;;;;;;;;;;8.93;36.01;94020.22;5055861;28;19923;-50
2021/12/09 07:38:27;;;;;;;;;;;;;;;9.26;35.36;94013.97;5057008;28;19920;-47
2021/12/09 07:40:54;;;;;;;;;;;;;;;9.28;35.53;94022.28;5056349;28;20231;-47
2021/12/09 07:43:21;;;;;;;;;;;;;;;9.45;35.03;94028.81;5056142;28;19913;-68
2021/12/09 07:45:48;;;;;;;;;;;;;;;9.78;35.01;94027.69;5055762;28;20223;-47
2021/12/09 07:48:14;;;;;;;;;;;;;;;9.74;34.67;94013.69;5056897;28;19923;-47
2021/12/09 07:50:41;;;;;;;;;;;;;;;9.88;34.57;94024.88;5056483;28;19924;-49
2021/12/09 07:53:08;;;;;;;;;;;;;;;9.38;35.09;94004.94;5055946;28;19913;-48
2021/12/09 07:55:35;;;;;;;;;;;;;;;9.60;34.87;94005.03;5056305;28;19912;-47
2021/12/09 07:58:02;;;;;;;;;;;;;;;10.02;34.64;94022.28;5056467;28;19956;-69
2021/12/09 08:00:31;;;;;;;;;;;;;;;9.46;35.39;94001.66;5056074;28;19944;-48
2021/12/09 08:02:58;;;;;;;;;;;;;;;9.61;35.42;94003.97;5056662;28;19921;-58
2021/12/09 08:05:25;;;;;;;;;;;;;;;9.59;35.44;94006.09;5056131;28;19913;-48
2021/12/09 08:07:52;;;;;;;;;;;;;;;9.23;36.07;93998.13;5055898;28;19912;-49
2021/12/09 08:10:19;;;;;;;;;;;;;;;9.63;35.52;94004.50;5056573;28;19919;-52
2021/12/09 08:12:46;;;;;;;;;;;;;;;10.81;33.69;94014.97;5050450;28;19912;-51
2021/12/09 08:15:14;;;;;;;;;;;;;;;10.38;33.71;94013.78;5046753;28;19916;-51
2021/12/09 08:20:08;;;;;;;;;;;;;;;9.89;35.31;94008.19;5039038;28;19931;-53
2021/12/09 08:22:35;;;;;;;;;;;;;;;10.13;34.31;94010.59;5055979;28;19916;-46
2021/12/09 08:25:03;;;;;;;;;;;;;;;9.00;36.56;94010.22;5054988;28;20239;-56
2021/12/09 08:27:30;;;;;;;;;;;;;;;9.25;36.29;94017.63;5055553;28;19924;-50
2021/12/09 08:29:56;;;;;;;;;;;;;;;9.33;36.73;94013.59;5055302;28;20326;-59
2021/12/09 08:32:23;;;;;;;;;;;;;;;8.91;37.69;94012.69;5055240;28;19917;-57
2021/12/09 08:34:50;;;;;;;;;;;;;;;8.86;36.80;93999.75;5055312;28;19920;-46
2021/12/09 08:37:17;;;;;;;;;;;;;;;9.58;36.22;94009.78;5044633;28;19928;-47
2021/12/09 08:39:44;;;;;;;;;;;;;;;9.89;35.34;94010.81;5035714;28;19917;-52
2021/12/09 08:42:11;;;;;;;;;;;;;;;10.37;34.02;93999.94;5040564;28;19920;-47
2021/12/09 08:44:37;;;;;;;;;;;;;;;11.37;32.73;94005.03;5053285;28;19928;-47
2021/12/09 08:47:04;;;;;;;;;;;;;;;10.48;33.56;94006.53;5054116;28;19916;-50
2021/12/09 08:49:31;;;;;;;;;;;;;;;10.72;33.27;93985.34;5055633;28;19913;-46
2021/12/09 08:51:58;;;;;;;;;;;;;;;10.73;33.68;93996.59;5054857;28;19913;-52
2021/12/09 08:54:25;;;;;;;;;;;;;;;10.44;33.83;93987.28;5037758;28;19913;-47
2021/12/09 08:56:52;;;;;;;;;;;;;;;10.84;33.64;93992.66;5055244;28;19936;-50
2021/12/09 08:59:19;;;;;;;;;;;;;;;11.65;31.80;93969.00;5043979;28;19913;-53
2021/12/09 09:01:46;;;;;;;;;;;;;;;13.14;29.12;93980.97;5035246;28;19913;-53
2021/12/09 09:04:13;;;;;;;;;;;;;;;11.42;32.31;93968.25;5038368;28;20316;-47
2021/12/09 09:06:53;;;;;;;;;;;;;;;11.25;33.27;93962.94;5042826;28;19917;-51
2021/12/09 09:09:20;;;;;;;;;;;;;;;12.33;31.06;93973.72;5035320;28;19921;-56
2021/12/09 09:11:47;;;;;;;;;;;;;;;14.13;28.09;93971.13;5035119;28;19917;-48
2021/12/09 09:14:14;;;;;;;;;;;;;;;11.32;32.90;93961.44;5043743;28;19917;-47
2021/12/09 09:16:41;;;;;;;;;;;;;;;11.95;32.12;93949.88;5053432;28;20246;-49
2021/12/09 09:19:08;;;;;;;;;;;;;;;11.13;32.62;93956.41;5050571;28;19913;-45
2021/12/09 09:21:35;;;;;;;;;;;;;;;12.01;31.92;93956.53;5049860;28;19928;-52
2021/12/09 09:24:03;;;;;;;;;;;;;;;12.14;31.26;93928.66;5055081;28;19917;-57
2021/12/09 09:26:31;;;;;;;;;;;;;;;13.52;29.31;93954.81;5051998;28;19920;-54
2021/12/09 09:28:58;;;;;;;;;;;;;;;11.80;31.42;93939.06;5035221;28;19923;-47
2021/12/09 09:31:27;;;;;;;;;;;;;;;12.86;30.24;93946.44;5035429;28;19913;-45
2021/12/09 09:33:54;;;;;;;;;;;;;;;11.53;32.36;93943.38;5035250;28;19920;-70
2021/12/09 09:36:21;;;;;;;;;;;;;;;10.90;33.47;93946.25;5048973;28;20641;-51
2021/12/09 09:38:47;;;;;;;;;;;;;;;11.53;32.79;93935.53;5054457;28;19924;-46
2021/12/09 09:41:17;;;;;;;;;;;;;;;11.30;33.21;93936.66;5054732;28;19924;-49
2021/12/09 09:46:12;;;;;;;;;;;;;;;11.65;32.68;93922.63;5049867;28;19917;-55
2021/12/09 09:48:39;;;;;;;;;;;;;;;11.90;32.23;93920.44;5052237;28;19917;-50
2021/12/09 09:51:07;;;;;;;;;;;;;;;11.88;32.23;93901.63;5049016;28;19916;-55
2021/12/09 09:53:34;;;;;;;;;;;;;;;12.13;31.93;93903.53;5059199;28;20184;-48
2021/12/09 09:56:01;;;;;;;;;;;;;;;12.04;32.10;93908.00;5057031;28;19921;-56
2021/12/09 09:58:28;;;;;;;;;;;;;;;12.40;31.98;93891.22;5058500;28;19917;-68
2021/12/09 10:00:55;;;;;;;;;;;;;;;12.25;31.93;93893.22;5058713;28;19913;-68
2021/12/09 10:03:27;;;;;;;;;;;;;;;12.26;31.57;93897.38;5058797;28;19924;-48
2021/12/09 10:05:57;;;;;;;;;;;;;;;12.54;31.00;93883.97;5057952;28;19913;-64
2021/12/09 10:08:24;;;;;;;;;;;;;;;12.93;30.65;93903.97;5058346;28;19920;-52
2021/12/09 10:10:50;;;;;;;;;;;;;;;12.75;31.02;93874.41;5058419;28;19919;-51
2021/12/09 10:13:21;;;;;;;;;;;;;;;13.38;30.22;93874.72;5055662;28;19916;-47
2021/12/09 10:15:49;;;;;;;;;;;;;;;13.89;29.31;93879.72;5057896;28;19917;-62
2021/12/09 10:18:31;;;;;;;;;;;;;;;13.69;29.33;93877.06;5055500;28;19924;-69
2021/12/09 10:20:58;;;;;;;;;;;;;;;13.11;30.10;93875.88;5057676;28;19928;-55
2021/12/09 10:23:42;;;;;;;;;;;;;;;13.04;30.57;93884.22;5057859;28;19920;-50
2021/12/09 10:26:14;;;;;;;;;;;;;;;13.55;29.85;93864.94;5057707;28;19920;-51
2021/12/09 10:28:45;;;;;;;;;;;;;;;13.16;30.35;93854.69;5058041;28;19920;-49
2021/12/09 10:31:17;;;;;;;;;;;;;;;13.70;29.90;93883.84;5058424;28;19921;-69
2021/12/09 10:34:09;;;;;;;;;;;;;;;13.75;29.80;93873.16;5058246;28;19921;-69
2021/12/09 10:36:47;;;;;;;;;;;;;;;12.74;31.38;93867.59;5057095;28;19913;-69
2021/12/09 10:39:17;;;;;;;;;;;;;;;12.70;31.64;93868.53;5053636;28;19920;-69
2021/12/09 10:41:44;;;;;;;;;;;;;;;13.72;29.83;93860.66;5057194;28;19920;-71
2021/12/09 10:44:11;;;;;;;;;;;;;;;13.00;30.99;93849.16;5057922;28;19913;-69
2021/12/09 10:46:50;;;;;;;;;;;;;;;13.55;29.96;93843.91;5057814;28;19924;-70
2021/12/09 10:49:18;;;;;;;;;;;;;;;14.71;28.45;93848.53;5039733;28;20270;-70
2021/12/09 10:51:56;;;;;;;;;;;;;;;14.41;29.03;93857.59;5057664;28;19920;-70
2021/12/09 10:54:31;;;;;;;;;;;;;;;13.94;29.54;93841.22;5057876;28;19923;-70
2021/12/09 10:57:18;;;;;;;;;;;;;;;14.31;29.14;93836.91;5057416;28;19935;-71
2021/12/09 10:59:44;;;;;;;;;;;;;;;14.28;29.66;93838.34;5057651;28;20250;-70
2021/12/09 11:02:11;;;;;;;;;;;;;;;13.76;30.28;93832.66;5057213;28;19920;-70
2021/12/09 11:04:38;;;;;;;;;;;;;;;15.46;27.98;93837.81;5056842;28;19913;-71
2021/12/09 11:07:18;;;;;;;;;;;;;;;14.86;29.03;93835.88;5057227;28;19916;-70
2021/12/09 11:09:45;;;;;;;;;;;;;;;13.79;30.09;93824.16;5057267;28;19920;-48
2021/12/09 11:12:41;;;;;;;;;;;;;;;14.69;29.49;93837.56;5056819;28;19912;-48
2021/12/09 11:15:08;;;;;;;;;;;;;;;13.68;30.12;93822.97;5043857;28;19912;-54
2021/12/09 11:17:38;;;;;;;;;;;;;;;14.11;30.02;93833.22;5057101;28;19946;-46
2021/12/09 11:20:05;;;;;;;;;;;;;;;14.03;30.21;93824.28;5056485;28;19928;-47
2021/12/09 11:22:35;;;;;;;;;;;;;;;13.60;30.76;93829.06;5057252;28;19934;-60
2021/12/09 11:25:04;;;;;;;;;;;;;;;13.19;31.70;93831.25;5044483;28;20326;-60
2021/12/09 11:27:31;;;;;;;;;;;;;;;13.14;31.80;93812.25;5057277;28;19917;-47
2021/12/09 11:30:13;;;;;;;;;;;;;;;12.81;32.00;93831.19;5054663;28;19921;-49
2021/12/09 11:32:52;;;;;;;;;;;;;;;12.94;31.94;93822.34;5037430;28;19917;-52
2021/12/09 11:35:25;;;;;;;;;;;;;;;12.40;32.96;93830.91;5039456;28;19923;-58
2021/12/09 11:40:47;;;;;;;;;;;;;;;12.25;33.16;93835.56;5036398;28;19919;-58
2021/12/09 11:43:18;;;;;;;;;;;;;;;12.49;32.45;93829.06;5057039;28;19920;-54
2021/12/09 11:45:46;;;;;;;;;;;;;;;12.22;33.13;93828.31;5056779;28;19916;-48
2021/12/09 11:48:14;;;;;;;;;;;;;;;12.47;32.32;93823.34;5055574;28;20239;-53
2021/12/09 11:50:45;;;;;;;;;;;;;;;12.09;33.21;93810.13;5055446;28;19920;-47
2021/12/09 11:53:14;;;;;;;;;;;;;;;13.08;31.59;93803.00;5037094;28;19913;-45
2021/12/09 11:55:46;;;;;;;;;;;;;;;13.19;31.77;93798.97;5036443;28;20255;-47
2021/12/09 11:58:33;;;;;;;;;;;;;;;12.90;32.29;93797.81;5036395;28;20312;-53
2021/12/09 12:11:56;;;;;;;;;;;;;;;13.23;31.61;93774.41;5055173;28;19913;-48
2021/12/09 12:14:40;;;;;;;;;;;;;;;13.16;31.95;93784.59;5054952;28;19913;-47
2021/12/09 12:17:33;;;;;;;;;;;;;;;13.77;30.76;93769.28;5056282;28;19913;-48
2021/12/09 12:25:34;;;;;;;;;;;;;;;13.67;31.09;93782.06;5043522;28;19923;-69
2021/12/09 12:31:36;;;;;;;;;;;;;;;13.22;32.03;93751.09;5055711;28;19943;-54
2021/12/09 12:37:14;;;;;;;;;;;;;;;14.14;30.56;93764.25;5054563;28;19912;-53
2021/12/09 12:42:13;;;;;;;;;;;;;;;13.32;31.99;93755.22;5055440;28;19920;-57
2021/12/09 12:44:59;;;;;;;;;;;;;;;13.89;31.26;93758.09;5055505;28;20314;-51
2021/12/09 12:47:36;;;;;;;;;;;;;;;13.97;31.16;93754.63;5055666;28;19924;-58
2021/12/09 12:50:10;;;;;;;;;;;;;;;14.24;30.98;93768.31;5055095;28;19913;-60
2021/12/09 12:52:38;;;;;;;;;;;;;;;14.25;30.78;93756.72;5053656;28;19913;-66
2021/12/09 12:55:13;;;;;;;;;;;;;;;13.83;31.03;93743.63;5055225;28;19916;-48
2021/12/09 12:57:46;;;;;;;;;;;;;;;13.75;31.53;93749.69;5055377;28;19920;-48
2021/12/09 13:00:23;;;;;;;;;;;;;;;15.20;29.23;93756.50;5054926;28;19920;-50
2021/12/09 13:05:46;;;;;;;;;;;;;;;15.15;29.17;93743.56;5051500;28;19920;-48
2021/12/09 13:13:47;;;;;;;;;;;;;;;14.49;30.02;93738.41;5054878;28;19912;-53
2021/12/09 13:16:17;;;;;;;;;;;;;;;15.08;29.13;93751.22;5054935;28;20281;-54
2021/12/09 13:21:43;;;;;;;;;;;;;;;15.74;28.02;93748.38;5054354;28;20338;-50
2021/12/09 13:24:20;;;;;;;;;;;;;;;15.73;27.94;93731.03;5042509;28;19920;-50
2021/12/09 13:27:50;;;;;;;;;;;;;;;14.97;29.04;93742.22;5053467;28;19917;-47
2021/12/09 13:30:11;;;;;;;;;;;;;;;14.31;30.13;93737.81;5046007;28;19947;-55
2021/12/09 13:46:08;;;;;;;;;;;;;;;13.75;31.58;93697.16;5053900;28;19912;-48
2021/12/09 13:48:41;;;;;;;;;;;;;;;15.86;28.85;93721.19;5053618;28;19913;-46
2021/12/09 13:51:22;;;;;;;;;;;;;;;14.72;30.00;93709.88;5045814;28;19913;-52
2021/12/09 13:54:17;;;;;;;;;;;;;;;13.84;31.74;93697.88;5053525;28;19931;-58
2021/12/09 13:56:46;;;;;;;;;;;;;;;15.62;28.80;93719.41;5051831;28;19925;-48
2021/12/09 13:59:17;;;;;;;;;;;;;;;13.95;31.23;93704.25;5035763;28;20339;-53